Latest Weather Observations for Charles Point

IDD60901

Issued at 10:01 am CST Saturday 28 March 2015 (issued every 10 minutes, with the page automatically refreshed every 10 minutes)

About weather observations | Map of Darwin area stations | Latest observations for Darwin area | Other Formats
Station Details ID: 014031 Name: CHARLES POINT Lat: -12.39 Lon: 130.63 Height: 14.0 m
Data from the previous 72 hours. | See also: Recent months for locations in Northern Territory
Date/Time
CST
Tmp

°C
App
Tmp
°C
Dew
Point
°C
Rel
Hum
%
Delta-T

°C
Wind Press
QNH
hPa
Press
MSL
hPa
Rain
since
9 am
mm
Dir
 
Spd
km/h
Gust
km/h
Spd
kts
Gust
kts
28/10:00am 29.4 34.8 24.5 75 3.4 NE 4 6 2 3 1013.8 1013.7 0.0
28/09:30am 29.4 34.3 24.3 74 3.5 ENE 6 9 3 5 1013.6 1013.5 0.0
28/09:00am 29.2 34.1 24.3 75 3.4 E 6 9 3 5 1013.2 1013.1 0.2
28/08:30am 28.6 33.4 24.2 77 3.1 ENE 6 7 3 4 1013.0 1012.9 0.2
28/08:00am 27.2 33.3 25.0 88 1.5 ENE 2 6 1 3 1012.7 1012.6 0.2
28/07:30am 25.8 31.3 24.0 90 1.2 E 2 6 1 3 1012.3 1012.2 0.2
28/07:00am 25.1 30.2 23.3 90 1.2 ENE 2 4 1 2 1011.9 1011.8 0.2
28/06:30am 25.3 30.3 23.2 88 1.4 ENE 2 6 1 3 1011.8 1011.7 0.2
28/06:00am 25.8 30.4 23.1 85 1.8 ENE 4 6 2 3 1011.6 1011.5 0.2
28/05:30am 25.1 29.4 22.6 86 1.7 ESE 4 6 2 3 1011.5 1011.4 0.2
28/05:00am 25.1 29.1 22.8 87 1.6 ESE 6 11 3 6 1011.5 1011.4 0.2
28/04:30am 25.0 29.0 22.7 87 1.6 ESE 6 9 3 5 1011.3 1011.2 0.2
28/04:00am 24.9 28.6 22.6 87 1.5 SE 7 9 4 5 1011.4 1011.3 0.2
28/03:30am 24.6 28.5 22.5 88 1.4 SE 6 9 3 5 1011.7 1011.6 0.2
28/03:00am 24.7 28.4 22.6 88 1.4 SE 7 11 4 6 1011.8 1011.7 0.2
28/02:30am 24.4 28.3 22.5 89 1.3 SE 6 9 3 5 1012.0 1011.9 0.2
28/02:00am 24.6 28.5 22.5 88 1.4 ESE 6 9 3 5 1012.3 1012.2 0.2
28/01:30am 24.9 28.8 22.6 87 1.5 SE 6 9 3 5 1012.7 1012.6 0.2
28/01:00am 25.0 29.0 22.7 87 1.5 SE 6 9 3 5 1012.9 1012.8 0.2
28/12:30am 25.3 29.4 23.0 87 1.6 SE 6 11 3 6 1013.1 1013.0 0.2
28/12:00am 25.5 29.6 23.2 87 1.6 SE 7 13 4 7 1013.4 1013.3 0.2
 
Date/Time
CST
Tmp

°C
App
Tmp
°C
Dew
Point
°C
Rel
Hum
%
Delta-T

°C
Wind Press
QNH
hPa
Press
MSL
hPa
Rain
since
9 am
mm
Dir
 
Spd
km/h
Gust
km/h
Spd
kts
Gust
kts
27/11:30pm 25.6 29.7 23.3 87 1.6 SSE 7 11 4 6 1013.7 1013.6 0.2
27/11:00pm 25.6 29.7 23.3 87 1.6 SSE 7 11 4 6 1013.8 1013.7 0.2
27/10:30pm 25.6 29.8 23.5 88 1.4 SSE 7 11 4 6 1014.0 1013.9 0.2
27/10:00pm 25.7 29.3 23.7 89 1.4 SSE 11 15 6 8 1014.0 1013.9 0.2
27/09:30pm 25.9 30.0 23.9 89 1.4 SSE 9 15 5 8 1014.0 1013.9 0.2
27/09:00pm 26.2 30.8 24.1 88 1.4 SSE 7 11 4 6 1014.0 1013.9 0.2
27/08:30pm 26.4 30.6 24.1 87 1.6 SE 9 13 5 7 1013.6 1013.5 0.2
27/08:00pm 26.8 31.5 24.3 86 1.7 SSE 7 13 4 7 1013.1 1013.0 0.2
27/07:30pm 26.7 31.5 24.2 86 1.7 SSE 6 9 3 5 1012.6 1012.5 0.2
27/07:00pm 27.1 32.3 24.2 84 2.0 SE 4 6 2 3 1012.1 1012.0 0.2
27/06:30pm 27.8 32.3 24.0 80 2.6 ESE 7 9 4 5 1012.0 1011.9 0.2
27/06:00pm 28.9 33.6 24.0 75 3.4 E 6 11 3 6 1011.7 1011.6 0.2
27/05:30pm 29.3 33.8 23.7 72 3.9 ENE 6 9 3 5 1011.2 1011.1 0.2
27/05:00pm 29.3 34.2 24.4 75 3.4 NE 6 9 3 5 1010.8 1010.7 0.2
27/04:30pm 28.8 33.7 24.6 78 2.9 NNE 7 11 4 6 1010.4 1010.3 0.2
27/04:00pm 28.9 33.7 24.5 77 3.1 NE 7 13 4 7 1010.6 1010.5 0.2
27/03:30pm 29.2 33.8 24.1 74 3.5 E 7 13 4 7 1011.2 1011.1 0.2
27/03:00pm 29.0 33.5 23.9 74 3.5 E 7 15 4 8 1011.6 1011.5 0.2
27/02:30pm 27.8 32.3 24.0 80 2.6 ESE 7 13 4 7 1012.2 1012.1 0.2
27/02:00pm 27.4 31.6 24.1 82 2.3 E 9 17 5 9 1012.8 1012.7 0.2
27/01:30pm 28.0 32.4 24.4 81 2.5 E 9 15 5 8 1013.4 1013.3 0.2
27/01:00pm 27.6 31.6 24.4 83 2.2 E 11 19 6 10 1013.9 1013.8 0.2
27/12:30pm 27.9 32.0 24.5 82 2.4 E 11 19 6 10 1014.3 1014.2 0.2
27/12:00pm 28.1 32.3 24.7 82 2.4 E 11 19 6 10 1014.4 1014.3 0.2
27/11:30am 28.4 32.5 25.2 83 2.2 ESE 13 22 7 12 1014.1 1014.0 0.2
27/11:00am 27.8 32.6 24.4 82 2.4 ESE 7 13 4 7 1014.3 1014.2 0.0
27/10:30am 27.6 31.8 24.8 85 2.0 ENE 11 19 6 10 1014.5 1014.4 0.0
27/10:00am 26.0 30.9 24.6 92 1.0 ENE 7 17 4 9 1014.6 1014.5 0.0
27/09:30am 24.9 29.0 24.0 95 0.6 ENE 9 17 5 9 1015.2 1015.1 0.0
27/09:00am 24.2 28.3 23.3 95 0.6 ESE 7 13 4 7 1015.7 1015.6 73.2
27/08:30am 24.2 28.9 23.3 95 0.6 SSE 4 6 2 3 1015.9 1015.8 72.8
27/08:00am 23.6 28.0 22.8 95 0.5 ESE 4 7 2 4 1015.8 1015.7 72.8
27/07:30am 23.1 27.5 22.1 94 0.7 S 2 6 1 3 1015.0 1014.9 72.2
27/07:00am 23.3 26.4 22.1 93 0.8 NNW 9 17 5 9 1015.1 1015.0 70.0
27/06:36am 24.5 24.5 23.1 92 0.9 NW 28 48 15 26 1014.7 1014.6 59.2
27/06:30am 24.9 28.5 23.7 93 0.8 W 11 37 6 20 1014.8 1014.7 59.0
27/06:00am 24.7 28.7 23.7 94 0.7 E 9 22 5 12 1013.4 1013.3 58.6
27/05:30am 24.4 28.2 23.4 94 0.7 E 9 17 5 9 1013.2 1013.1 58.6
27/05:00am 24.5 28.9 23.5 94 0.7 SE 6 11 3 6 1013.2 1013.1 52.2
27/04:30am 24.3 25.4 23.1 93 0.8 E 22 39 12 21 1012.3 1012.2 45.0
27/04:00am 25.4 27.2 23.5 89 1.3 ESE 20 37 11 20 1012.3 1012.2 28.0
27/03:30am 26.9 29.5 24.0 84 2.0 ESE 17 28 9 15 1012.2 1012.1 26.6
27/03:00am 28.4 29.7 24.0 77 3.0 NE 24 37 13 20 1012.1 1012.0 26.6
27/02:30am 28.5 29.7 24.5 79 2.8 NE 26 35 14 19 1012.2 1012.1 26.6
27/02:00am 28.4 29.7 24.6 80 2.6 NE 26 35 14 19 1012.4 1012.3 26.6
27/01:30am 28.4 30.2 24.8 81 2.5 NE 24 33 13 18 1012.7 1012.6 26.4
27/01:00am 28.4 30.3 25.0 82 2.4 NNE 24 35 13 19 1013.0 1012.9 26.4
27/12:30am 28.3 30.8 24.7 81 2.5 NE 20 32 11 17 1013.4 1013.3 26.4
27/12:00am 28.2 29.6 24.8 82 2.4 NE 26 33 14 18 1013.4 1013.3 26.4
 
Date/Time
CST
Tmp

°C
App
Tmp
°C
Dew
Point
°C
Rel
Hum
%
Delta-T

°C
Wind Press
QNH
hPa
Press
MSL
hPa
Rain
since
9 am
mm
Dir
 
Spd
km/h
Gust
km/h
Spd
kts
Gust
kts
26/11:30pm 28.4 30.6 24.8 81 2.5 NE 22 33 12 18 1013.4 1013.3 26.4
26/11:00pm 28.7 30.5 24.3 77 3.1 NNE 22 32 12 17 1013.5 1013.4 26.4
26/10:30pm 28.6 30.6 24.6 79 2.8 NNE 22 32 12 17 1013.6 1013.5 26.4
26/10:00pm 28.7 30.0 24.7 79 2.8 NNE 26 32 14 17 1013.2 1013.1 26.4
26/09:30pm 28.9 30.2 24.7 78 2.9 NNE 26 35 14 19 1013.3 1013.2 26.4
26/09:00pm 28.9 29.5 24.7 78 2.9 NNE 30 35 16 19 1012.9 1012.8 26.4
26/08:30pm 28.8 30.8 24.6 78 2.9 NNE 22 32 12 17 1012.5 1012.4 26.4
26/08:00pm 28.6 30.8 24.8 80 2.7 NE 22 33 12 18 1012.3 1012.2 26.4
26/07:30pm 27.5 30.7 24.4 83 2.2 ENE 15 24 8 13 1012.0 1011.9 26.4
26/07:00pm 27.6 30.0 24.2 82 2.4 NE 19 26 10 14 1011.9 1011.8 26.4
26/06:30pm 27.3 30.4 24.2 83 2.1 NE 15 20 8 11 1011.6 1011.5 26.4
26/06:00pm 27.0 28.6 23.9 83 2.1 NE 22 32 12 17 1011.1 1011.0 26.4
26/05:30pm 27.0 31.6 25.4 91 1.1 NE 11 22 6 12 1010.8 1010.7 26.4
26/05:00pm 26.7 31.4 25.5 93 0.8 NE 11 17 6 9 1010.2 1010.1 26.4
26/04:30pm 25.0 29.2 24.1 95 0.6 ENE 9 15 5 8 1010.5 1010.4 26.2
26/04:00pm 25.0 26.7 24.1 95 0.6 N 22 32 12 17 1011.0 1010.9 19.8
26/03:58pm 25.4 27.4 24.5 95 0.6 N 22 32 12 17 1011.1 1011.0 18.0
26/03:30pm 25.4 23.8 24.0 92 1.0 N 39 56 21 30 1010.5 1010.4 4.0
26/03:23pm 26.9 28.0 24.4 86 1.7 NE 26 44 14 24 1010.5 1010.4 1.0
26/03:00pm 28.3 32.9 25.3 84 2.1 NE 11 17 6 9 1010.0 1009.9 0.4
26/02:30pm 28.9 32.0 24.2 76 3.3 NE 15 24 8 13 1010.1 1010.0 0.0
26/02:00pm 29.7 31.9 24.3 73 3.8 NE 20 28 11 15 1010.5 1010.4 0.0
26/01:30pm 31.0 34.4 24.6 68 4.5 NE 15 22 8 12 1010.6 1010.5 0.0
26/01:00pm 31.0 34.1 24.1 66 4.8 NNE 15 20 8 11 1011.1 1011.0 0.0
26/12:30pm 30.6 33.6 24.7 71 4.1 NNE 17 24 9 13 1011.6 1011.5 0.0
26/12:00pm 30.2 32.9 24.1 70 4.2 NNE 17 24 9 13 1012.2 1012.1 0.0
26/11:30am 29.4 31.6 24.0 72 3.7 NNE 19 28 10 15 1012.3 1012.2 0.0
26/11:00am 29.6 31.5 23.8 71 4.0 NNE 20 32 11 17 1012.6 1012.5 0.0
26/10:30am 29.4 31.5 23.8 72 3.9 NNE 19 30 10 16 1012.9 1012.8 0.0
26/10:00am 28.9 30.8 23.8 74 3.5 NNE 20 30 11 16 1012.6 1012.5 0.0
26/09:30am 29.1 31.4 24.4 76 3.3 NNE 20 30 11 16 1012.5 1012.4 0.0
26/09:00am 28.7 30.7 23.6 74 3.5 NNE 19 24 10 13 1012.1 1012.0 3.4
26/08:30am 28.6 31.5 24.4 78 2.9 NNE 17 24 9 13 1011.6 1011.5 3.4
26/08:00am 28.4 31.5 24.2 78 2.9 NE 15 24 8 13 1011.4 1011.3 3.4
26/07:30am 28.0 31.0 24.0 79 2.8 NNE 15 20 8 11 1011.4 1011.3 3.4
26/07:00am 28.0 30.9 23.8 78 2.9 NNE 15 22 8 12 1010.9 1010.8 3.4
26/06:30am 27.8 31.1 23.8 79 2.8 NNE 13 17 7 9 1010.6 1010.5 3.4
26/06:00am 26.3 31.9 24.2 88 1.4 E 2 11 1 6 1010.3 1010.2 3.4
26/05:30am 26.6 31.0 24.4 88 1.5 NNE 9 15 5 8 1010.2 1010.1 3.4
26/05:00am 26.2 29.8 23.7 86 1.7 NNE 11 20 6 11 1009.9 1009.8 3.4
26/04:30am 27.2 29.5 23.4 80 2.6 NNW 17 22 9 12 1009.6 1009.5 1.8
26/04:00am 27.5 31.1 23.7 80 2.6 NNW 11 15 6 8 1009.3 1009.2 1.8
26/03:30am 27.4 30.1 24.1 82 2.3 N 17 22 9 12 1009.6 1009.5 1.8
26/03:00am 26.4 30.9 24.6 90 1.2 N 9 17 5 9 1009.7 1009.6 1.8
26/02:30am 25.9 31.5 24.3 91 1.1 S 2 4 1 2 1010.0 1009.9 0.0
26/02:00am 25.9 30.6 23.9 89 1.4 SSE 6 9 3 5 1010.2 1010.1 0.0
26/01:30am 26.2 31.2 23.9 87 1.6 SE 4 7 2 4 1010.6 1010.5 0.0
26/01:00am 26.5 31.6 24.0 86 1.7 S 4 6 2 3 1010.8 1010.7 0.0
26/12:30am 27.2 32.1 23.7 81 2.4 W 4 7 2 4 1011.0 1010.9 0.0
26/12:00am 27.9 32.2 23.7 78 2.9 NNW 7 11 4 6 1011.1 1011.0 0.0
 
Date/Time
CST
Tmp

°C
App
Tmp
°C
Dew
Point
°C
Rel
Hum
%
Delta-T

°C
Wind Press
QNH
hPa
Press
MSL
hPa
Rain
since
9 am
mm
Dir
 
Spd
km/h
Gust
km/h
Spd
kts
Gust
kts
25/11:30pm 27.5 31.1 23.7 80 2.6 N 11 17 6 9 1011.3 1011.2 0.0
25/11:00pm 28.1 31.9 23.5 76 3.2 WNW 9 13 5 7 1011.3 1011.2 0.0
25/10:30pm 28.0 31.5 23.6 77 3.0 WNW 11 15 6 8 1011.0 1010.9 0.0
25/10:00pm 28.1 31.3 23.7 77 3.0 WNW 13 17 7 9 1010.9 1010.8 0.0
25/09:30pm 28.2 31.0 23.6 76 3.2 WNW 15 22 8 12 1010.7 1010.6 0.0
25/09:00pm 28.3 31.1 23.7 76 3.2 WNW 15 20 8 11 1010.5 1010.4 0.0
25/08:30pm 28.2 31.3 23.6 76 3.2 WNW 13 19 7 10 1010.4 1010.3 0.0
25/08:00pm 28.1 31.2 23.5 76 3.2 WNW 13 17 7 9 1010.1 1010.0 0.0
25/07:30pm 27.9 31.7 23.5 77 3.0 WNW 9 15 5 8 1009.9 1009.8 0.0
25/07:00pm 28.2 31.3 23.6 76 3.2 WNW 13 19 7 10 1009.3 1009.2 0.0
25/06:30pm 28.7 31.7 23.4 73 3.6 WNW 13 17 7 9 1009.1 1009.0 0.0
25/06:00pm 29.1 32.1 23.3 71 4.0 WNW 13 20 7 11 1008.7 1008.6 0.0
25/05:30pm 29.4 32.4 23.4 70 4.1 WNW 13 22 7 12 1008.5 1008.4 0.0
25/05:00pm 29.6 32.2 23.3 69 4.3 WNW 15 20 8 11 1008.2 1008.0 0.0
25/04:30pm 29.8 32.9 23.5 69 4.3 WNW 13 20 7 11 1008.1 1007.9 0.0
25/04:00pm 29.8 33.0 23.0 67 4.7 WNW 11 17 6 9 1007.8 1007.6 0.0
25/03:30pm 29.9 32.8 23.1 67 4.7 WNW 13 19 7 10 1007.7 1007.5 0.0
25/03:00pm 29.2 32.1 23.2 70 4.1 WNW 13 19 7 10 1007.8 1007.6 0.0
25/02:30pm 29.5 32.7 23.0 68 4.5 WNW 11 20 6 11 1008.2 1008.0 0.0
25/02:00pm 29.5 32.0 23.2 69 4.3 WNW 15 20 8 11 1008.6 1008.5 0.0
25/01:30pm 29.4 32.5 22.9 68 4.4 WNW 11 17 6 9 1008.9 1008.8 0.0
25/01:00pm 29.3 32.7 23.3 70 4.1 WNW 11 17 6 9 1009.2 1009.1 0.0
25/12:30pm 28.3 31.6 23.2 74 3.5 WNW 11 17 6 9 1009.6 1009.5 0.0
25/12:00pm 28.1 32.5 23.5 76 3.2 W 6 17 3 9 1010.0 1009.9 0.0
25/11:30am 27.2 31.1 22.6 76 3.1 WNW 6 15 3 8 1010.4 1010.3 0.0
25/11:00am 27.3 31.6 23.7 81 2.5 S 7 13 4 7 1010.7 1010.6 0.0
25/10:30am 26.8 31.4 23.1 80 2.5 SSW 4 7 2 4 1010.8 1010.7 0.0

Latest Capital City Observations: Canberra | Sydney | Melbourne | Brisbane | Adelaide | Perth | Hobart | Darwin

Other Formats:

Comma delimited format used in spreadsheet applications
http://www.bom.gov.au/fwo/IDD60901/IDD60901.99510.axf

JavaScript Object Notation format (JSON) in row-major order
http://www.bom.gov.au/fwo/IDD60901/IDD60901.99510.json